sensor_id;sensor_type;location;lat;lon;timestamp;P1;durP1;ratioP1;P2;durP2;ratioP2
66870;SDS011;53780;44.998;9.926;2023-02-03T00:02:24;8.95;;;3.10;;
66870;SDS011;53780;44.998;9.926;2023-02-03T00:05:28;7.95;;;3.10;;
66870;SDS011;53780;44.998;9.926;2023-02-03T00:08:33;8.95;;;3.75;;
66870;SDS011;53780;44.998;9.926;2023-02-03T00:11:39;8.47;;;3.33;;
66870;SDS011;53780;44.998;9.926;2023-02-03T00:14:43;8.95;;;3.70;;
66870;SDS011;53780;44.998;9.926;2023-02-03T00:17:46;8.20;;;3.20;;
66870;SDS011;53780;44.998;9.926;2023-02-03T00:20:50;8.98;;;3.47;;
66870;SDS011;53780;44.998;9.926;2023-02-03T00:23:54;9.50;;;3.70;;
66870;SDS011;53780;44.998;9.926;2023-02-03T00:26:58;8.60;;;3.57;;
66870;SDS011;53780;44.998;9.926;2023-02-03T00:30:01;8.73;;;3.42;;
66870;SDS011;53780;44.998;9.926;2023-02-03T00:33:05;10.13;;;3.80;;
66870;SDS011;53780;44.998;9.926;2023-02-03T00:36:10;13.68;;;4.57;;
66870;SDS011;53780;44.998;9.926;2023-02-03T00:39:14;10.10;;;4.03;;
66870;SDS011;53780;44.998;9.926;2023-02-03T00:42:18;9.50;;;4.20;;
66870;SDS011;53780;44.998;9.926;2023-02-03T00:45:22;11.10;;;4.50;;
66870;SDS011;53780;44.998;9.926;2023-02-03T00:48:26;9.93;;;4.60;;
66870;SDS011;53780;44.998;9.926;2023-02-03T00:51:31;9.60;;;4.32;;
66870;SDS011;53780;44.998;9.926;2023-02-03T00:54:36;11.65;;;4.43;;
66870;SDS011;53780;44.998;9.926;2023-02-03T00:57:39;8.83;;;4.13;;
66870;SDS011;53780;44.998;9.926;2023-02-03T01:00:43;9.93;;;4.43;;
66870;SDS011;53780;44.998;9.926;2023-02-03T01:03:47;11.77;;;5.30;;
66870;SDS011;53780;44.998;9.926;2023-02-03T01:06:52;12.02;;;5.40;;
66870;SDS011;53780;44.998;9.926;2023-02-03T01:09:59;11.85;;;5.40;;
66870;SDS011;53780;44.998;9.926;2023-02-03T01:13:03;10.73;;;4.90;;
66870;SDS011;53780;44.998;9.926;2023-02-03T01:16:07;11.25;;;5.00;;
66870;SDS011;53780;44.998;9.926;2023-02-03T01:19:12;11.32;;;5.15;;
66870;SDS011;53780;44.998;9.926;2023-02-03T01:22:17;13.00;;;5.25;;
66870;SDS011;53780;44.998;9.926;2023-02-03T01:25:21;10.10;;;4.80;;
66870;SDS011;53780;44.998;9.926;2023-02-03T01:28:25;11.90;;;4.50;;
66870;SDS011;53780;44.998;9.926;2023-02-03T01:31:30;12.63;;;4.57;;
66870;SDS011;53780;44.998;9.926;2023-02-03T01:34:37;10.52;;;4.70;;
66870;SDS011;53780;44.998;9.926;2023-02-03T01:37:42;11.43;;;4.95;;
66870;SDS011;53780;44.998;9.926;2023-02-03T01:40:47;11.55;;;5.05;;
66870;SDS011;53780;44.998;9.926;2023-02-03T01:43:52;10.85;;;4.68;;
66870;SDS011;53780;44.998;9.926;2023-02-03T01:46:57;12.20;;;5.25;;
66870;SDS011;53780;44.998;9.926;2023-02-03T01:50:20;10.95;;;4.63;;
66870;SDS011;53780;44.998;9.926;2023-02-03T01:53:27;11.05;;;4.40;;
66870;SDS011;53780;44.998;9.926;2023-02-03T01:56:31;10.85;;;4.53;;
66870;SDS011;53780;44.998;9.926;2023-02-03T01:59:38;10.57;;;4.35;;
66870;SDS011;53780;44.998;9.926;2023-02-03T02:02:43;9.82;;;4.35;;
66870;SDS011;53780;44.998;9.926;2023-02-03T02:05:53;9.40;;;4.55;;
66870;SDS011;53780;44.998;9.926;2023-02-03T02:09:02;10.52;;;4.65;;
66870;SDS011;53780;44.998;9.926;2023-02-03T02:12:08;11.30;;;4.60;;
66870;SDS011;53780;44.998;9.926;2023-02-03T02:15:13;10.00;;;4.10;;
66870;SDS011;53780;44.998;9.926;2023-02-03T02:48:52;13.90;;;4.25;;
66870;SDS011;53780;44.998;9.926;2023-02-03T02:52:02;10.27;;;4.50;;
66870;SDS011;53780;44.998;9.926;2023-02-03T02:55:17;9.98;;;4.45;;
66870;SDS011;53780;44.998;9.926;2023-02-03T02:58:28;9.60;;;4.18;;
66870;SDS011;53780;44.998;9.926;2023-02-03T03:01:36;10.38;;;4.07;;
66870;SDS011;53780;44.998;9.926;2023-02-03T03:04:40;10.15;;;3.88;;
66870;SDS011;53780;44.998;9.926;2023-02-03T03:07:47;13.52;;;4.32;;
66870;SDS011;53780;44.998;9.926;2023-02-03T03:10:57;9.23;;;4.07;;
66870;SDS011;53780;44.998;9.926;2023-02-03T03:14:02;9.60;;;4.25;;
66870;SDS011;53780;44.998;9.926;2023-02-03T03:17:09;10.15;;;4.32;;
66870;SDS011;53780;44.998;9.926;2023-02-03T03:20:16;10.07;;;4.45;;
66870;SDS011;53780;44.998;9.926;2023-02-03T03:23:28;9.27;;;4.10;;
66870;SDS011;53780;44.998;9.926;2023-02-03T03:26:49;10.18;;;4.20;;
66870;SDS011;53780;44.998;9.926;2023-02-03T03:30:09;9.25;;;4.00;;
66870;SDS011;53780;44.998;9.926;2023-02-03T03:33:19;10.43;;;4.45;;
66870;SDS011;53780;44.998;9.926;2023-02-03T03:36:32;8.82;;;4.10;;
66870;SDS011;53780;44.998;9.926;2023-02-03T03:46:39;12.07;;;4.10;;
66870;SDS011;53780;44.998;9.926;2023-02-03T03:50:11;10.90;;;4.15;;
66870;SDS011;53780;44.998;9.926;2023-02-03T03:53:20;9.00;;;4.18;;
66870;SDS011;53780;44.998;9.926;2023-02-03T03:56:27;9.35;;;4.22;;
66870;SDS011;53780;44.998;9.926;2023-02-03T03:59:36;10.07;;;4.25;;
66870;SDS011;53780;44.998;9.926;2023-02-03T04:02:42;9.45;;;4.10;;
66870;SDS011;53780;44.998;9.926;2023-02-03T04:05:52;11.75;;;4.45;;
66870;SDS011;53780;44.998;9.926;2023-02-03T04:08:56;7.93;;;3.67;;
66870;SDS011;53780;44.998;9.926;2023-02-03T04:12:00;9.90;;;4.32;;
66870;SDS011;53780;44.998;9.926;2023-02-03T04:15:04;12.43;;;4.38;;
66870;SDS011;53780;44.998;9.926;2023-02-03T04:18:09;12.52;;;4.50;;
66870;SDS011;53780;44.998;9.926;2023-02-03T04:21:15;12.52;;;4.80;;
66870;SDS011;53780;44.998;9.926;2023-02-03T04:24:19;12.15;;;4.80;;
66870;SDS011;53780;44.998;9.926;2023-02-03T04:27:23;11.10;;;4.32;;
66870;SDS011;53780;44.998;9.926;2023-02-03T04:30:27;11.43;;;4.13;;
66870;SDS011;53780;44.998;9.926;2023-02-03T04:33:31;10.45;;;3.30;;
66870;SDS011;53780;44.998;9.926;2023-02-03T04:36:34;10.38;;;2.67;;
66870;SDS011;53780;44.998;9.926;2023-02-03T04:39:38;10.55;;;3.17;;
66870;SDS011;53780;44.998;9.926;2023-02-03T04:42:43;10.75;;;3.25;;
66870;SDS011;53780;44.998;9.926;2023-02-03T04:45:46;11.00;;;3.30;;
66870;SDS011;53780;44.998;9.926;2023-02-03T04:48:50;9.35;;;2.95;;
66870;SDS011;53780;44.998;9.926;2023-02-03T04:51:54;10.45;;;3.40;;
66870;SDS011;53780;44.998;9.926;2023-02-03T04:54:58;7.43;;;3.03;;
66870;SDS011;53780;44.998;9.926;2023-02-03T04:58:02;7.72;;;2.90;;
66870;SDS011;53780;44.998;9.926;2023-02-03T05:01:06;9.68;;;3.20;;
66870;SDS011;53780;44.998;9.926;2023-02-03T05:04:11;7.18;;;2.95;;
66870;SDS011;53780;44.998;9.926;2023-02-03T05:07:15;8.27;;;2.85;;
66870;SDS011;53780;44.998;9.926;2023-02-03T05:10:19;9.70;;;3.05;;
66870;SDS011;53780;44.998;9.926;2023-02-03T05:13:22;8.27;;;2.70;;
66870;SDS011;53780;44.998;9.926;2023-02-03T05:16:26;8.13;;;2.72;;
66870;SDS011;53780;44.998;9.926;2023-02-03T05:19:30;7.40;;;2.55;;
66870;SDS011;53780;44.998;9.926;2023-02-03T05:22:33;6.43;;;2.45;;
66870;SDS011;53780;44.998;9.926;2023-02-03T05:25:38;6.45;;;2.13;;
66870;SDS011;53780;44.998;9.926;2023-02-03T05:28:41;6.90;;;2.20;;
66870;SDS011;53780;44.998;9.926;2023-02-03T05:31:45;6.82;;;2.25;;
66870;SDS011;53780;44.998;9.926;2023-02-03T05:34:49;7.72;;;2.50;;
66870;SDS011;53780;44.998;9.926;2023-02-03T05:37:52;7.22;;;2.55;;
66870;SDS011;53780;44.998;9.926;2023-02-03T05:40:56;8.63;;;2.22;;
66870;SDS011;53780;44.998;9.926;2023-02-03T05:44:19;7.13;;;1.83;;
66870;SDS011;53780;44.998;9.926;2023-02-03T05:47:24;7.30;;;2.30;;
66870;SDS011;53780;44.998;9.926;2023-02-03T05:50:31;6.93;;;2.20;;
66870;SDS011;53780;44.998;9.926;2023-02-03T05:53:43;8.48;;;2.88;;
66870;SDS011;53780;44.998;9.926;2023-02-03T05:56:47;10.18;;;3.70;;
66870;SDS011;53780;44.998;9.926;2023-02-03T05:59:51;12.05;;;3.42;;
66870;SDS011;53780;44.998;9.926;2023-02-03T06:02:58;9.82;;;3.63;;
66870;SDS011;53780;44.998;9.926;2023-02-03T06:06:04;10.63;;;4.22;;
66870;SDS011;53780;44.998;9.926;2023-02-03T06:09:08;10.13;;;3.72;;
66870;SDS011;53780;44.998;9.926;2023-02-03T06:12:13;10.10;;;4.10;;
66870;SDS011;53780;44.998;9.926;2023-02-03T06:15:17;11.48;;;3.70;;
66870;SDS011;53780;44.998;9.926;2023-02-03T06:18:21;12.88;;;4.68;;
66870;SDS011;53780;44.998;9.926;2023-02-03T06:21:26;10.75;;;3.90;;
66870;SDS011;53780;44.998;9.926;2023-02-03T06:24:30;9.65;;;3.67;;
66870;SDS011;53780;44.998;9.926;2023-02-03T06:27:34;13.35;;;5.00;;
66870;SDS011;53780;44.998;9.926;2023-02-03T06:30:38;10.45;;;4.40;;
66870;SDS011;53780;44.998;9.926;2023-02-03T06:33:42;15.13;;;5.57;;
66870;SDS011;53780;44.998;9.926;2023-02-03T06:36:46;11.50;;;4.90;;
66870;SDS011;53780;44.998;9.926;2023-02-03T06:39:50;26.50;;;9.52;;
66870;SDS011;53780;44.998;9.926;2023-02-03T06:42:54;18.42;;;6.93;;
66870;SDS011;53780;44.998;9.926;2023-02-03T06:45:58;15.73;;;7.07;;
66870;SDS011;53780;44.998;9.926;2023-02-03T06:49:02;22.90;;;10.50;;
66870;SDS011;53780;44.998;9.926;2023-02-03T06:52:05;19.58;;;8.45;;
66870;SDS011;53780;44.998;9.926;2023-02-03T06:55:09;18.80;;;8.32;;
66870;SDS011;53780;44.998;9.926;2023-02-03T06:58:13;12.40;;;5.97;;
66870;SDS011;53780;44.998;9.926;2023-02-03T07:01:18;17.50;;;6.50;;
66870;SDS011;53780;44.998;9.926;2023-02-03T07:04:22;18.98;;;7.10;;
66870;SDS011;53780;44.998;9.926;2023-02-03T07:07:26;17.77;;;7.50;;
66870;SDS011;53780;44.998;9.926;2023-02-03T07:10:29;19.20;;;7.72;;
66870;SDS011;53780;44.998;9.926;2023-02-03T07:13:33;24.00;;;8.15;;
66870;SDS011;53780;44.998;9.926;2023-02-03T07:16:37;19.25;;;7.65;;
66870;SDS011;53780;44.998;9.926;2023-02-03T07:19:40;14.63;;;6.35;;
66870;SDS011;53780;44.998;9.926;2023-02-03T07:22:44;16.67;;;5.72;;
66870;SDS011;53780;44.998;9.926;2023-02-03T07:25:53;15.18;;;6.97;;
66870;SDS011;53780;44.998;9.926;2023-02-03T07:29:01;12.93;;;5.57;;
66870;SDS011;53780;44.998;9.926;2023-02-03T07:32:04;13.93;;;5.70;;
66870;SDS011;53780;44.998;9.926;2023-02-03T07:35:09;13.68;;;4.88;;
66870;SDS011;53780;44.998;9.926;2023-02-03T07:38:13;12.68;;;5.63;;
66870;SDS011;53780;44.998;9.926;2023-02-03T07:41:17;11.55;;;5.28;;
66870;SDS011;53780;44.998;9.926;2023-02-03T07:44:20;14.60;;;5.45;;
66870;SDS011;53780;44.998;9.926;2023-02-03T07:47:25;14.25;;;6.65;;
66870;SDS011;53780;44.998;9.926;2023-02-03T07:50:29;18.63;;;6.80;;
66870;SDS011;53780;44.998;9.926;2023-02-03T07:53:33;17.55;;;7.85;;
66870;SDS011;53780;44.998;9.926;2023-02-03T07:56:37;35.78;;;13.23;;
66870;SDS011;53780;44.998;9.926;2023-02-03T07:59:41;59.53;;;20.17;;
66870;SDS011;53780;44.998;9.926;2023-02-03T08:02:44;97.68;;;31.77;;
66870;SDS011;53780;44.998;9.926;2023-02-03T08:05:49;107.93;;;36.13;;
66870;SDS011;53780;44.998;9.926;2023-02-03T08:08:53;116.13;;;37.55;;
66870;SDS011;53780;44.998;9.926;2023-02-03T08:11:56;121.93;;;39.88;;
66870;SDS011;53780;44.998;9.926;2023-02-03T08:15:00;125.38;;;42.40;;
66870;SDS011;53780;44.998;9.926;2023-02-03T08:18:05;130.90;;;42.47;;
66870;SDS011;53780;44.998;9.926;2023-02-03T08:21:11;132.88;;;42.33;;
66870;SDS011;53780;44.998;9.926;2023-02-03T08:24:15;132.27;;;42.53;;
66870;SDS011;53780;44.998;9.926;2023-02-03T08:27:19;125.88;;;40.10;;
66870;SDS011;53780;44.998;9.926;2023-02-03T08:30:24;134.38;;;41.83;;
66870;SDS011;53780;44.998;9.926;2023-02-03T08:33:29;118.40;;;40.05;;
66870;SDS011;53780;44.998;9.926;2023-02-03T08:36:32;130.13;;;41.53;;
66870;SDS011;53780;44.998;9.926;2023-02-03T08:39:36;132.30;;;44.13;;
66870;SDS011;53780;44.998;9.926;2023-02-03T08:42:40;134.55;;;45.72;;
66870;SDS011;53780;44.998;9.926;2023-02-03T08:45:44;142.45;;;45.55;;
66870;SDS011;53780;44.998;9.926;2023-02-03T08:48:48;131.38;;;43.53;;
66870;SDS011;53780;44.998;9.926;2023-02-03T08:51:52;122.18;;;42.38;;
66870;SDS011;53780;44.998;9.926;2023-02-03T08:54:56;119.13;;;41.13;;
66870;SDS011;53780;44.998;9.926;2023-02-03T08:58:00;111.85;;;38.30;;
66870;SDS011;53780;44.998;9.926;2023-02-03T09:01:05;86.50;;;32.58;;
66870;SDS011;53780;44.998;9.926;2023-02-03T09:04:18;83.93;;;31.48;;
66870;SDS011;53780;44.998;9.926;2023-02-03T09:07:26;86.13;;;32.70;;
66870;SDS011;53780;44.998;9.926;2023-02-03T09:10:31;80.97;;;30.87;;
66870;SDS011;53780;44.998;9.926;2023-02-03T09:13:34;86.15;;;32.90;;
66870;SDS011;53780;44.998;9.926;2023-02-03T09:16:40;92.85;;;35.03;;
66870;SDS011;53780;44.998;9.926;2023-02-03T09:19:43;97.35;;;35.97;;
66870;SDS011;53780;44.998;9.926;2023-02-03T09:22:47;95.65;;;36.83;;
66870;SDS011;53780;44.998;9.926;2023-02-03T09:25:51;87.77;;;34.93;;
66870;SDS011;53780;44.998;9.926;2023-02-03T09:28:55;93.70;;;34.95;;
66870;SDS011;53780;44.998;9.926;2023-02-03T09:31:58;86.15;;;34.00;;
66870;SDS011;53780;44.998;9.926;2023-02-03T09:35:03;78.53;;;32.00;;
66870;SDS011;53780;44.998;9.926;2023-02-03T09:38:08;76.13;;;31.05;;
66870;SDS011;53780;44.998;9.926;2023-02-03T09:41:14;75.97;;;30.77;;
66870;SDS011;53780;44.998;9.926;2023-02-03T09:47:46;64.65;;;27.50;;
66870;SDS011;53780;44.998;9.926;2023-02-03T09:50:56;70.65;;;28.05;;
66870;SDS011;53780;44.998;9.926;2023-02-03T09:54:02;70.50;;;29.10;;
66870;SDS011;53780;44.998;9.926;2023-02-03T09:57:15;91.07;;;35.03;;
66870;SDS011;53780;44.998;9.926;2023-02-03T10:07:01;105.85;;;41.60;;
66870;SDS011;53780;44.998;9.926;2023-02-03T10:10:33;96.38;;;39.25;;
66870;SDS011;53780;44.998;9.926;2023-02-03T10:27:31;95.85;;;39.03;;
66870;SDS011;53780;44.998;9.926;2023-02-03T10:30:38;105.10;;;40.43;;
66870;SDS011;53780;44.998;9.926;2023-02-03T10:33:47;100.90;;;40.45;;
66870;SDS011;53780;44.998;9.926;2023-02-03T10:37:16;102.00;;;40.50;;
66870;SDS011;53780;44.998;9.926;2023-02-03T10:40:26;98.72;;;39.72;;
66870;SDS011;53780;44.998;9.926;2023-02-03T10:43:31;107.00;;;41.85;;
66870;SDS011;53780;44.998;9.926;2023-02-03T10:46:51;101.23;;;42.00;;
66870;SDS011;53780;44.998;9.926;2023-02-03T10:49:56;99.30;;;40.13;;
66870;SDS011;53780;44.998;9.926;2023-02-03T10:56:36;106.78;;;42.83;;
66870;SDS011;53780;44.998;9.926;2023-02-03T10:59:43;102.55;;;41.40;;
66870;SDS011;53780;44.998;9.926;2023-02-03T11:06:25;98.10;;;40.60;;
66870;SDS011;53780;44.998;9.926;2023-02-03T11:12:41;93.75;;;39.30;;
66870;SDS011;53780;44.998;9.926;2023-02-03T11:15:52;97.65;;;40.55;;
66870;SDS011;53780;44.998;9.926;2023-02-03T11:19:17;97.37;;;40.67;;
66870;SDS011;53780;44.998;9.926;2023-02-03T11:25:31;99.70;;;40.40;;
66870;SDS011;53780;44.998;9.926;2023-02-03T11:28:36;96.20;;;42.63;;
66870;SDS011;53780;44.998;9.926;2023-02-03T11:31:45;100.47;;;41.45;;
66870;SDS011;53780;44.998;9.926;2023-02-03T11:38:32;97.38;;;40.33;;
66870;SDS011;53780;44.998;9.926;2023-02-03T11:41:42;99.97;;;42.25;;
66870;SDS011;53780;44.998;9.926;2023-02-03T11:44:46;104.70;;;43.03;;
66870;SDS011;53780;44.998;9.926;2023-02-03T12:11:31;91.53;;;38.67;;
66870;SDS011;53780;44.998;9.926;2023-02-03T12:27:49;95.00;;;40.60;;
66870;SDS011;53780;44.998;9.926;2023-02-03T12:34:38;83.05;;;36.25;;
66870;SDS011;53780;44.998;9.926;2023-02-03T12:38:00;76.95;;;33.45;;
66870;SDS011;53780;44.998;9.926;2023-02-03T12:41:23;77.60;;;33.87;;
66870;SDS011;53780;44.998;9.926;2023-02-03T12:44:34;78.05;;;33.38;;
66870;SDS011;53780;44.998;9.926;2023-02-03T12:47:54;82.20;;;34.40;;
66870;SDS011;53780;44.998;9.926;2023-02-03T12:51:09;81.10;;;34.20;;
66870;SDS011;53780;44.998;9.926;2023-02-03T12:57:53;86.37;;;34.27;;
66870;SDS011;53780;44.998;9.926;2023-02-03T13:01:04;81.07;;;32.78;;
66870;SDS011;53780;44.998;9.926;2023-02-03T13:07:51;85.28;;;33.15;;
66870;SDS011;53780;44.998;9.926;2023-02-03T13:11:10;77.13;;;32.90;;
66870;SDS011;53780;44.998;9.926;2023-02-03T13:14:28;77.70;;;31.97;;
66870;SDS011;53780;44.998;9.926;2023-02-03T13:21:13;93.75;;;36.28;;
66870;SDS011;53780;44.998;9.926;2023-02-03T13:24:17;99.15;;;38.25;;
66870;SDS011;53780;44.998;9.926;2023-02-03T13:42:07;93.07;;;34.97;;
66870;SDS011;53780;44.998;9.926;2023-02-03T13:45:14;88.97;;;33.70;;
66870;SDS011;53780;44.998;9.926;2023-02-03T13:48:42;92.37;;;36.03;;
66870;SDS011;53780;44.998;9.926;2023-02-03T13:51:48;91.18;;;34.70;;
66870;SDS011;53780;44.998;9.926;2023-02-03T13:54:52;91.75;;;35.65;;
66870;SDS011;53780;44.998;9.926;2023-02-03T13:57:57;90.85;;;34.95;;
66870;SDS011;53780;44.998;9.926;2023-02-03T14:01:03;92.78;;;35.35;;
66870;SDS011;53780;44.998;9.926;2023-02-03T14:08:15;88.18;;;33.60;;
66870;SDS011;53780;44.998;9.926;2023-02-03T14:20:45;95.50;;;35.40;;
66870;SDS011;53780;44.998;9.926;2023-02-03T14:23:55;88.28;;;34.58;;
66870;SDS011;53780;44.998;9.926;2023-02-03T14:27:02;86.57;;;33.80;;
66870;SDS011;53780;44.998;9.926;2023-02-03T14:30:18;86.85;;;34.30;;
66870;SDS011;53780;44.998;9.926;2023-02-03T14:33:27;81.93;;;33.30;;
66870;SDS011;53780;44.998;9.926;2023-02-03T14:36:52;100.50;;;36.47;;
66870;SDS011;53780;44.998;9.926;2023-02-03T14:40:16;89.50;;;33.50;;
66870;SDS011;53780;44.998;9.926;2023-02-03T15:00:31;86.63;;;32.53;;
66870;SDS011;53780;44.998;9.926;2023-02-03T15:03:37;85.75;;;32.55;;
66870;SDS011;53780;44.998;9.926;2023-02-03T15:06:48;83.50;;;33.05;;
66870;SDS011;53780;44.998;9.926;2023-02-03T15:09:54;88.30;;;33.53;;
66870;SDS011;53780;44.998;9.926;2023-02-03T15:12:59;88.82;;;33.38;;
66870;SDS011;53780;44.998;9.926;2023-02-03T15:16:03;84.22;;;33.28;;
66870;SDS011;53780;44.998;9.926;2023-02-03T15:19:18;86.15;;;34.58;;
66870;SDS011;53780;44.998;9.926;2023-02-03T15:22:28;84.35;;;33.05;;
66870;SDS011;53780;44.998;9.926;2023-02-03T15:25:32;88.13;;;33.53;;
66870;SDS011;53780;44.998;9.926;2023-02-03T15:28:36;84.75;;;32.20;;
66870;SDS011;53780;44.998;9.926;2023-02-03T15:31:41;87.07;;;34.88;;
66870;SDS011;53780;44.998;9.926;2023-02-03T15:34:48;87.75;;;33.90;;
66870;SDS011;53780;44.998;9.926;2023-02-03T15:37:53;84.45;;;32.97;;
66870;SDS011;53780;44.998;9.926;2023-02-03T15:41:00;89.10;;;34.67;;
66870;SDS011;53780;44.998;9.926;2023-02-03T15:44:12;84.45;;;32.85;;
66870;SDS011;53780;44.998;9.926;2023-02-03T15:47:33;89.03;;;34.40;;
66870;SDS011;53780;44.998;9.926;2023-02-03T15:50:46;89.53;;;34.35;;
66870;SDS011;53780;44.998;9.926;2023-02-03T15:53:59;87.55;;;34.10;;
66870;SDS011;53780;44.998;9.926;2023-02-03T15:57:07;85.93;;;34.77;;
66870;SDS011;53780;44.998;9.926;2023-02-03T16:00:35;89.45;;;34.05;;
66870;SDS011;53780;44.998;9.926;2023-02-03T16:03:43;88.75;;;34.50;;
66870;SDS011;53780;44.998;9.926;2023-02-03T16:06:50;92.03;;;34.67;;
66870;SDS011;53780;44.998;9.926;2023-02-03T16:09:59;88.63;;;33.83;;
66870;SDS011;53780;44.998;9.926;2023-02-03T16:16:32;97.95;;;36.85;;
66870;SDS011;53780;44.998;9.926;2023-02-03T16:19:40;93.03;;;36.35;;
66870;SDS011;53780;44.998;9.926;2023-02-03T16:22:57;96.97;;;37.47;;
66870;SDS011;53780;44.998;9.926;2023-02-03T16:29:16;98.37;;;37.40;;
66870;SDS011;53780;44.998;9.926;2023-02-03T16:32:39;99.22;;;38.47;;
66870;SDS011;53780;44.998;9.926;2023-02-03T16:36:08;108.63;;;38.03;;
66870;SDS011;53780;44.998;9.926;2023-02-03T16:39:33;99.18;;;37.90;;
66870;SDS011;53780;44.998;9.926;2023-02-03T16:42:55;104.47;;;37.97;;
66870;SDS011;53780;44.998;9.926;2023-02-03T16:46:17;92.67;;;35.30;;
66870;SDS011;53780;44.998;9.926;2023-02-03T16:49:39;100.50;;;36.35;;
66870;SDS011;53780;44.998;9.926;2023-02-03T16:53:01;109.22;;;40.28;;
66870;SDS011;53780;44.998;9.926;2023-02-03T16:56:05;107.60;;;38.55;;
66870;SDS011;53780;44.998;9.926;2023-02-03T16:59:09;102.32;;;38.10;;
66870;SDS011;53780;44.998;9.926;2023-02-03T17:02:14;112.00;;;40.13;;
66870;SDS011;53780;44.998;9.926;2023-02-03T17:05:18;113.90;;;39.45;;
66870;SDS011;53780;44.998;9.926;2023-02-03T17:08:24;110.13;;;37.80;;
66870;SDS011;53780;44.998;9.926;2023-02-03T17:11:28;107.05;;;40.10;;
66870;SDS011;53780;44.998;9.926;2023-02-03T17:14:32;103.30;;;37.75;;
66870;SDS011;53780;44.998;9.926;2023-02-03T17:17:36;107.73;;;38.90;;
66870;SDS011;53780;44.998;9.926;2023-02-03T17:20:40;103.35;;;37.10;;
66870;SDS011;53780;44.998;9.926;2023-02-03T17:23:44;120.80;;;40.42;;
66870;SDS011;53780;44.998;9.926;2023-02-03T17:26:48;119.45;;;39.80;;
66870;SDS011;53780;44.998;9.926;2023-02-03T17:29:53;123.82;;;41.08;;
66870;SDS011;53780;44.998;9.926;2023-02-03T17:32:58;113.03;;;37.93;;
66870;SDS011;53780;44.998;9.926;2023-02-03T17:36:04;115.10;;;38.60;;
66870;SDS011;53780;44.998;9.926;2023-02-03T17:39:10;105.63;;;37.67;;
66870;SDS011;53780;44.998;9.926;2023-02-03T17:42:14;110.57;;;38.65;;
66870;SDS011;53780;44.998;9.926;2023-02-03T17:45:18;111.13;;;38.03;;
66870;SDS011;53780;44.998;9.926;2023-02-03T17:48:22;105.60;;;38.37;;
66870;SDS011;53780;44.998;9.926;2023-02-03T17:51:26;113.22;;;37.00;;
66870;SDS011;53780;44.998;9.926;2023-02-03T17:54:32;113.40;;;38.38;;
66870;SDS011;53780;44.998;9.926;2023-02-03T17:57:36;110.75;;;37.90;;
66870;SDS011;53780;44.998;9.926;2023-02-03T18:00:40;116.45;;;39.45;;
66870;SDS011;53780;44.998;9.926;2023-02-03T18:03:45;114.30;;;38.00;;
66870;SDS011;53780;44.998;9.926;2023-02-03T18:06:50;115.60;;;38.22;;
66870;SDS011;53780;44.998;9.926;2023-02-03T18:09:57;108.35;;;37.13;;
66870;SDS011;53780;44.998;9.926;2023-02-03T18:13:00;105.25;;;36.20;;
66870;SDS011;53780;44.998;9.926;2023-02-03T18:16:05;116.18;;;39.50;;
66870;SDS011;53780;44.998;9.926;2023-02-03T18:19:11;108.23;;;37.77;;
66870;SDS011;53780;44.998;9.926;2023-02-03T18:22:16;114.45;;;39.75;;
66870;SDS011;53780;44.998;9.926;2023-02-03T18:25:20;116.85;;;39.83;;
66870;SDS011;53780;44.998;9.926;2023-02-03T18:28:24;116.60;;;39.97;;
66870;SDS011;53780;44.998;9.926;2023-02-03T18:31:28;119.03;;;40.92;;
66870;SDS011;53780;44.998;9.926;2023-02-03T18:34:32;120.73;;;39.80;;
66870;SDS011;53780;44.998;9.926;2023-02-03T18:37:36;122.65;;;41.13;;
66870;SDS011;53780;44.998;9.926;2023-02-03T18:40:39;113.30;;;39.22;;
66870;SDS011;53780;44.998;9.926;2023-02-03T18:43:43;123.57;;;40.30;;
66870;SDS011;53780;44.998;9.926;2023-02-03T18:46:50;121.32;;;41.63;;
66870;SDS011;53780;44.998;9.926;2023-02-03T18:49:55;113.87;;;38.47;;
66870;SDS011;53780;44.998;9.926;2023-02-03T18:52:59;116.85;;;39.60;;
66870;SDS011;53780;44.998;9.926;2023-02-03T18:56:12;105.05;;;36.78;;
66870;SDS011;53780;44.998;9.926;2023-02-03T18:59:37;107.15;;;35.78;;
66870;SDS011;53780;44.998;9.926;2023-02-03T19:02:41;108.65;;;37.20;;
66870;SDS011;53780;44.998;9.926;2023-02-03T19:05:45;109.63;;;36.17;;
66870;SDS011;53780;44.998;9.926;2023-02-03T19:08:50;150.07;;;52.70;;
66870;SDS011;53780;44.998;9.926;2023-02-03T19:11:54;143.85;;;50.28;;
66870;SDS011;53780;44.998;9.926;2023-02-03T19:15:01;123.97;;;42.63;;
66870;SDS011;53780;44.998;9.926;2023-02-03T19:18:05;131.70;;;43.67;;
66870;SDS011;53780;44.998;9.926;2023-02-03T19:21:08;117.67;;;39.83;;
66870;SDS011;53780;44.998;9.926;2023-02-03T19:24:14;111.65;;;37.72;;
66870;SDS011;53780;44.998;9.926;2023-02-03T19:27:18;106.28;;;36.35;;
66870;SDS011;53780;44.998;9.926;2023-02-03T19:30:22;102.68;;;35.95;;
66870;SDS011;53780;44.998;9.926;2023-02-03T19:33:26;96.53;;;33.20;;
66870;SDS011;53780;44.998;9.926;2023-02-03T19:36:30;105.03;;;34.42;;
66870;SDS011;53780;44.998;9.926;2023-02-03T19:39:33;120.97;;;38.13;;
66870;SDS011;53780;44.998;9.926;2023-02-03T19:42:38;125.22;;;40.22;;
66870;SDS011;53780;44.998;9.926;2023-02-03T19:45:41;108.82;;;35.35;;
66870;SDS011;53780;44.998;9.926;2023-02-03T19:48:45;109.43;;;36.28;;
66870;SDS011;53780;44.998;9.926;2023-02-03T19:51:50;112.37;;;37.37;;
66870;SDS011;53780;44.998;9.926;2023-02-03T19:54:55;105.10;;;35.28;;
66870;SDS011;53780;44.998;9.926;2023-02-03T19:57:59;154.65;;;50.60;;
66870;SDS011;53780;44.998;9.926;2023-02-03T20:01:03;125.15;;;43.28;;
66870;SDS011;53780;44.998;9.926;2023-02-03T20:04:06;150.65;;;50.50;;
66870;SDS011;53780;44.998;9.926;2023-02-03T20:07:11;140.02;;;47.60;;
66870;SDS011;53780;44.998;9.926;2023-02-03T20:10:16;112.57;;;38.80;;
66870;SDS011;53780;44.998;9.926;2023-02-03T20:13:20;120.53;;;39.90;;
66870;SDS011;53780;44.998;9.926;2023-02-03T20:16:23;119.80;;;43.17;;
66870;SDS011;53780;44.998;9.926;2023-02-03T20:19:27;126.00;;;42.92;;
66870;SDS011;53780;44.998;9.926;2023-02-03T20:22:31;132.52;;;45.45;;
66870;SDS011;53780;44.998;9.926;2023-02-03T20:25:35;120.65;;;43.53;;
66870;SDS011;53780;44.998;9.926;2023-02-03T20:28:39;96.63;;;35.72;;
66870;SDS011;53780;44.998;9.926;2023-02-03T20:31:43;101.00;;;36.47;;
66870;SDS011;53780;44.998;9.926;2023-02-03T20:34:47;102.38;;;35.35;;
66870;SDS011;53780;44.998;9.926;2023-02-03T20:37:51;94.38;;;35.70;;
66870;SDS011;53780;44.998;9.926;2023-02-03T20:40:55;103.80;;;35.70;;
66870;SDS011;53780;44.998;9.926;2023-02-03T20:43:59;100.55;;;36.28;;
66870;SDS011;53780;44.998;9.926;2023-02-03T20:47:07;101.57;;;36.80;;
66870;SDS011;53780;44.998;9.926;2023-02-03T20:50:16;102.65;;;37.92;;
66870;SDS011;53780;44.998;9.926;2023-02-03T20:53:24;100.05;;;37.05;;
66870;SDS011;53780;44.998;9.926;2023-02-03T20:56:29;95.88;;;33.90;;
66870;SDS011;53780;44.998;9.926;2023-02-03T20:59:32;87.90;;;33.67;;
66870;SDS011;53780;44.998;9.926;2023-02-03T21:02:36;92.93;;;33.28;;
66870;SDS011;53780;44.998;9.926;2023-02-03T21:05:59;97.95;;;33.58;;
66870;SDS011;53780;44.998;9.926;2023-02-03T21:12:15;88.57;;;32.13;;
66870;SDS011;53780;44.998;9.926;2023-02-03T21:15:22;83.35;;;30.27;;
66870;SDS011;53780;44.998;9.926;2023-02-03T21:18:38;77.10;;;29.05;;
66870;SDS011;53780;44.998;9.926;2023-02-03T21:21:46;67.85;;;27.33;;